Time;durP1;ratioP1;P1;durP2;ratioP2;P2;SDS_P1;SDS_P2;PMS_P1;PMS_P2;Temp;Humidity;BMP_temperature;BMP_pressure;BME280_temperature;BME280_humidity;BME280_pressure;Samples;Min_cycle;Max_cycle;Signal;HPM_P1;HPM_P2
2023/08/07 00:01:26;;;;;;;;;2.00;2.00;;;;;19.32;100.00;97766.34;6291213;27;96299;-62
2023/08/07 00:04:30;;;;;;;;;3.00;3.00;;;;;19.35;100.00;97769.28;6271811;27;97508;-62
2023/08/07 00:07:33;;;;;;;;;2.25;2.25;;;;;19.33;100.00;97766.06;6291750;27;96392;-63
2023/08/07 00:10:37;;;;;;;;;3.00;3.00;;;;;19.39;100.00;97759.38;6289858;27;96573;-62
2023/08/07 00:13:40;;;;;;;;;2.00;2.00;;;;;19.40;100.00;97754.72;6272620;27;98443;-63
2023/08/07 00:16:45;;;;;;;;;2.00;2.00;;;;;19.38;100.00;97744.09;6291326;27;96865;-62
2023/08/07 00:19:48;;;;;;;;;3.40;3.40;;;;;19.39;100.00;97751.19;6290163;27;96360;-62
2023/08/07 00:22:51;;;;;;;;;3.00;3.00;;;;;19.36;100.00;97742.75;6291455;27;96686;-62
2023/08/07 00:25:55;;;;;;;;;3.00;3.00;;;;;19.35;100.00;97731.03;6272228;27;96656;-62
2023/08/07 00:28:58;;;;;;;;;4.00;4.00;;;;;19.32;100.00;97739.03;6290092;27;96333;-62
2023/08/07 00:32:02;;;;;;;;;2.00;2.00;;;;;19.31;100.00;97730.03;6291107;27;96773;-62
2023/08/07 00:35:08;;;;;;;;;2.00;2.00;;;;;19.30;100.00;97735.81;6289257;27;98553;-62
2023/08/07 00:38:11;;;;;;;;;3.00;2.20;;;;;19.30;100.00;97725.66;6273156;27;96450;-63
2023/08/07 00:41:17;;;;;;;;;2.00;2.00;;;;;19.30;100.00;97724.88;6272623;27;96919;-62
2023/08/07 00:44:20;;;;;;;;;3.00;2.00;;;;;19.27;100.00;97718.09;6291320;27;97011;-62
2023/08/07 00:47:23;;;;;;;;;2.00;2.00;;;;;19.30;100.00;97719.41;6284954;27;96876;-62
2023/08/07 00:50:28;;;;;;;;;2.00;2.00;;;;;19.36;100.00;97729.09;6306542;27;96513;-62
2023/08/07 00:53:49;;;;;;;;;2.50;2.50;;;;;19.36;100.00;97721.72;6276701;27;96986;-62
2023/08/07 00:56:54;;;;;;;;;3.00;3.00;;;;;19.40;100.00;97728.19;6272281;27;98648;-62
2023/08/07 00:59:59;;;;;;;;;3.00;2.00;;;;;19.41;100.00;97718.06;6290039;27;96779;-62
2023/08/07 01:03:06;;;;;;;;;3.00;3.00;;;;;19.46;100.00;97712.50;6290709;27;96286;-62
2023/08/07 01:06:09;;;;;;;;;2.00;2.00;;;;;19.45;100.00;97713.63;6272706;27;96995;-62
2023/08/07 01:09:12;;;;;;;;;3.00;3.00;;;;;19.44;100.00;97721.03;6254396;27;96628;-62
2023/08/07 01:12:21;;;;;;;;;3.40;3.40;;;;;19.49;100.00;97713.84;6290480;27;96815;-62
2023/08/07 01:15:30;;;;;;;;;3.40;3.40;;;;;19.43;100.00;97724.03;6290645;27;96440;-62
2023/08/07 01:18:35;;;;;;;;;4.00;4.00;;;;;19.46;100.00;97713.31;6281280;27;96360;-62
2023/08/07 01:21:39;;;;;;;;;4.00;4.00;;;;;19.39;100.00;97712.09;6264531;27;96465;-62
2023/08/07 01:24:45;;;;;;;;;4.00;4.00;;;;;19.37;100.00;97714.31;6255070;27;96891;-62
2023/08/07 01:27:57;;;;;;;;;4.00;4.00;;;;;19.45;100.00;97713.63;6290387;27;96316;-62
2023/08/07 01:31:02;;;;;;;;;4.00;4.00;;;;;19.47;100.00;97714.13;6290329;27;96349;-62
2023/08/07 01:34:08;;;;;;;;;4.00;4.00;;;;;19.46;100.00;97712.50;6290582;27;96329;-62
2023/08/07 01:37:13;;;;;;;;;4.00;4.00;;;;;19.41;100.00;97718.06;6290138;27;96287;-62
2023/08/07 01:40:19;;;;;;;;;2.60;2.60;;;;;19.40;100.00;97717.25;6254205;27;96843;-62
2023/08/07 01:43:23;;;;;;;;;2.00;2.00;;;;;19.43;100.00;97719.38;6289431;27;96365;-62
2023/08/07 01:46:26;;;;;;;;;4.00;4.00;;;;;19.48;100.00;97721.22;6270911;27;99024;-62
2023/08/07 01:49:30;;;;;;;;;4.00;3.00;;;;;19.55;100.00;97721.59;6290119;27;96289;-62
2023/08/07 01:52:34;;;;;;;;;3.00;3.00;;;;;19.56;100.00;97722.41;6289921;27;96484;-62
2023/08/07 01:55:39;;;;;;;;;3.50;3.50;;;;;19.56;100.00;97725.94;6289624;27;96780;-62
2023/08/07 01:58:42;;;;;;;;;4.00;4.00;;;;;19.60;100.00;97720.66;6228644;27;98449;-62
2023/08/07 02:01:45;;;;;;;;;3.00;3.00;;;;;19.61;100.00;97725.84;6267519;27;96344;-62
2023/08/07 02:04:48;;;;;;;;;3.75;3.00;;;;;19.57;100.00;97724.03;6288440;27;96267;-62
2023/08/07 02:07:52;;;;;;;;;3.00;3.00;;;;;19.49;100.00;97728.31;6271474;27;96425;-62
2023/08/07 02:10:57;;;;;;;;;2.60;2.60;;;;;19.36;100.00;97735.38;6288257;27;96617;-62
2023/08/07 02:14:00;;;;;;;;;3.00;3.00;;;;;19.38;100.00;97726.88;6288291;27;96649;-62
2023/08/07 02:17:04;;;;;;;;;5.40;4.80;;;;;19.35;100.00;97735.72;6270553;27;96760;-62
2023/08/07 02:20:09;;;;;;;;;4.00;4.00;;;;;19.36;100.00;97738.13;6288244;27;96902;-62
2023/08/07 02:23:12;;;;;;;;;4.00;4.00;;;;;19.35;100.00;97743.91;6287376;27;96296;-62
2023/08/07 02:26:16;;;;;;;;;5.00;3.00;;;;;19.37;100.00;97750.66;6270909;27;96975;-62
2023/08/07 02:29:20;;;;;;;;;2.50;2.50;;;;;19.35;100.00;97741.94;6287009;27;96493;-62
2023/08/07 02:32:23;;;;;;;;;3.00;3.00;;;;;19.40;100.00;97749.25;6288466;27;96291;-62
2023/08/07 02:35:26;;;;;;;;;3.20;3.00;;;;;19.40;100.00;97746.53;6270146;27;98394;-62
2023/08/07 02:38:29;;;;;;;;;2.80;2.00;;;;;19.41;100.00;97735.28;6271106;27;96395;-62
2023/08/07 02:41:34;;;;;;;;;3.00;3.00;;;;;19.33;100.00;97736.00;6288759;27;96329;-62
2023/08/07 02:44:37;;;;;;;;;3.00;2.20;;;;;19.42;100.00;97741.53;6287263;27;96720;-62
2023/08/07 02:47:40;;;;;;;;;4.00;4.00;;;;;19.45;100.00;97743.69;6288726;27;96438;-62
2023/08/07 02:50:43;;;;;;;;;4.60;4.60;;;;;19.45;100.00;97741.78;6287222;27;96637;-62
2023/08/07 02:53:47;;;;;;;;;3.60;3.60;;;;;19.46;100.00;97731.66;6288768;27;96828;-62
2023/08/07 02:56:51;;;;;;;;;4.50;4.50;;;;;19.42;100.00;97734.16;6288542;27;96416;-62
2023/08/07 02:59:55;;;;;;;;;3.00;3.00;;;;;19.44;100.00;97729.25;6286945;27;96279;-62
2023/08/07 03:02:58;;;;;;;;;8.60;8.00;;;;;19.40;100.00;97730.13;6249304;27;96687;-62
2023/08/07 03:06:02;;;;;;;;;4.40;4.00;;;;;19.39;100.00;97739.44;6286994;27;96453;-62
2023/08/07 03:09:05;;;;;;;;;4.00;4.00;;;;;19.40;100.00;97741.06;6288014;27;96470;-62
2023/08/07 03:12:10;;;;;;;;;3.80;3.80;;;;;19.37;100.00;97752.59;6270161;27;96329;-62
2023/08/07 03:15:13;;;;;;;;;4.00;3.50;;;;;19.29;100.00;97754.13;6289042;27;96854;-62
2023/08/07 03:18:16;;;;;;;;;6.00;6.00;;;;;19.29;100.00;97758.78;6262965;27;96496;-62
2023/08/07 03:21:19;;;;;;;;;6.00;6.00;;;;;19.29;100.00;97750.59;6257622;27;96565;-63
2023/08/07 03:24:23;;;;;;;;;6.60;6.00;;;;;19.35;100.00;97761.09;6287837;27;96374;-62
2023/08/07 03:27:27;;;;;;;;;6.00;6.00;;;;;19.36;100.00;97765.44;6286867;27;97698;-63
2023/08/07 03:30:30;;;;;;;;;4.00;4.00;;;;;19.41;100.00;97764.53;6284773;27;99111;-62
2023/08/07 03:33:34;;;;;;;;;6.60;5.60;;;;;19.40;100.00;97774.63;6270034;27;97270;-63
2023/08/07 03:36:38;;;;;;;;;3.00;3.00;;;;;19.41;100.00;97765.34;6289322;27;97040;-62
2023/08/07 03:39:43;;;;;;;;;3.20;3.20;;;;;19.40;100.00;97773.84;6291595;27;96622;-63
2023/08/07 03:42:48;;;;;;;;;4.00;4.00;;;;;19.41;100.00;97772.72;6273386;27;96325;-62
2023/08/07 03:45:55;;;;;;;;;4.00;3.00;;;;;19.43;100.00;97776.78;6289456;27;96451;-62
2023/08/07 03:49:03;;;;;;;;;4.00;4.00;;;;;19.40;100.00;97776.59;6261456;27;96471;-63
2023/08/07 03:52:07;;;;;;;;;6.00;5.00;;;;;19.39;100.00;97775.78;6287252;27;96701;-63
2023/08/07 03:55:10;;;;;;;;;3.25;2.75;;;;;19.38;100.00;97781.53;6246141;27;96987;-63
2023/08/07 03:58:15;;;;;;;;;4.20;3.20;;;;;19.23;100.00;97781.84;6284665;27;96605;-62
2023/08/07 04:01:18;;;;;;;;;3.60;3.60;;;;;19.28;100.00;97785.28;6268252;27;97310;-62
2023/08/07 04:04:21;;;;;;;;;5.00;4.25;;;;;19.26;100.00;97787.50;6272103;27;96542;-62
2023/08/07 04:07:25;;;;;;;;;5.80;5.20;;;;;19.26;100.00;97794.91;6283142;27;96742;-62
2023/08/07 04:10:28;;;;;;;;;3.60;3.60;;;;;19.28;100.00;97792.69;6286057;27;96639;-62
2023/08/07 04:13:34;;;;;;;;;6.00;6.00;;;;;19.30;100.00;97790.47;6286868;27;97419;-63
2023/08/07 04:16:38;;;;;;;;;5.00;5.00;;;;;19.30;100.00;97791.25;6267102;27;96716;-62
2023/08/07 04:19:41;;;;;;;;;2.00;1.75;;;;;19.36;100.00;97795.50;6287176;27;98426;-62
2023/08/07 04:22:44;;;;;;;;;3.00;3.00;;;;;19.46;100.00;97789.03;6268440;27;96648;-62
2023/08/07 04:25:48;;;;;;;;;3.00;3.00;;;;;19.53;100.00;97794.09;6287090;27;96444;-62
2023/08/07 04:28:53;;;;;;;;;3.20;3.20;;;;;19.52;100.00;97798.75;6269277;27;98343;-62
2023/08/07 04:31:56;;;;;;;;;4.00;3.00;;;;;19.65;100.00;97797.91;6289093;27;97193;-62
2023/08/07 04:35:00;;;;;;;;;3.00;3.00;;;;;19.72;100.00;97789.31;6289613;27;96404;-62
2023/08/07 04:38:03;;;;;;;;;3.00;3.00;;;;;19.87;100.00;97800.72;6271306;27;98184;-62
2023/08/07 04:41:07;;;;;;;;;3.00;3.00;;;;;19.94;100.00;97802.25;6270463;27;96728;-62
2023/08/07 04:44:11;;;;;;;;;3.00;3.00;;;;;20.01;100.00;97795.22;6287361;27;96414;-62
2023/08/07 04:47:14;;;;;;;;;2.00;2.00;;;;;20.03;100.00;97803.94;6288177;27;96402;-62
2023/08/07 04:50:17;;;;;;;;;3.00;3.00;;;;;20.02;100.00;97806.97;6287102;27;98239;-62
2023/08/07 04:53:21;;;;;;;;;2.80;2.00;;;;;20.11;100.00;97805.09;6286396;27;97230;-63
2023/08/07 04:56:25;;;;;;;;;3.00;3.00;;;;;20.26;100.00;97800.09;6270020;27;96442;-62
2023/08/07 04:59:30;;;;;;;;;3.60;3.60;;;;;20.33;100.00;97807.88;6269925;27;96592;-62
2023/08/07 05:02:34;;;;;;;;;3.00;2.50;;;;;20.29;100.00;97793.16;6288774;27;96371;-63
2023/08/07 05:05:37;;;;;;;;;1.00;1.00;;;;;20.37;100.00;97797.13;6288197;27;96365;-62
2023/08/07 05:08:40;;;;;;;;;2.00;2.00;;;;;20.27;100.00;97796.22;6287859;27;96336;-62
2023/08/07 05:11:44;;;;;;;;;2.00;2.00;;;;;20.33;100.00;97807.09;6288625;27;96611;-63
2023/08/07 05:14:49;;;;;;;;;1.00;1.00;;;;;20.36;100.00;97799.06;6270527;27;98599;-62
2023/08/07 05:17:53;;;;;;;;;1.00;1.00;;;;;20.21;100.00;97781.03;6269260;27;96506;-63
2023/08/07 05:20:57;;;;;;;;;1.00;1.00;;;;;20.18;100.00;97800.81;6287042;27;96733;-62
2023/08/07 05:24:00;;;;;;;;;2.00;1.20;;;;;20.23;100.00;97797.16;6289027;27;96445;-62
2023/08/07 05:27:03;;;;;;;;;2.00;2.00;;;;;20.33;100.00;97787.94;6288777;27;96395;-62
2023/08/07 05:30:09;;;;;;;;;2.00;2.00;;;;;20.40;100.00;97789.09;6285715;27;98791;-62
2023/08/07 05:33:14;;;;;;;;;2.00;2.00;;;;;20.35;100.00;97802.09;6268231;27;97896;-62
2023/08/07 05:36:18;;;;;;;;;2.00;2.00;;;;;20.34;100.00;97795.81;6288080;27;96966;-62
2023/08/07 05:39:21;;;;;;;;;1.00;1.00;;;;;20.43;100.00;97806.84;6286669;27;96737;-61
2023/08/07 05:42:24;;;;;;;;;2.00;1.25;;;;;20.47;100.00;97810.56;6286921;27;96417;-61
2023/08/07 05:45:29;;;;;;;;;3.00;3.00;;;;;20.42;100.00;97810.69;6286597;27;96684;-62
2023/08/07 05:48:32;;;;;;;;;1.80;1.00;;;;;20.31;100.00;97805.47;6288309;27;96904;-63
2023/08/07 05:51:35;;;;;;;;;1.25;1.25;;;;;20.29;100.00;97821.34;6280900;27;96834;-62
2023/08/07 05:54:38;;;;;;;;;2.00;2.00;;;;;20.53;100.00;97817.50;6286922;27;96326;-62
2023/08/07 05:57:42;;;;;;;;;1.40;1.40;;;;;20.58;100.00;97826.41;6254198;27;98391;-62
2023/08/07 06:00:46;;;;;;;;;1.00;1.00;;;;;20.56;100.00;97822.38;6279241;27;96761;-62
2023/08/07 06:03:49;;;;;;;;;2.00;2.00;;;;;20.62;100.00;97830.13;6266714;27;96790;-62
2023/08/07 06:06:53;;;;;;;;;1.00;1.00;;;;;20.77;100.00;97825.41;6273386;27;96438;-62
2023/08/07 06:09:56;;;;;;;;;0.60;0.60;;;;;20.78;100.00;97830.56;6251451;27;99181;-62
2023/08/07 06:12:59;;;;;;;;;1.00;1.00;;;;;20.65;100.00;97828.72;6282603;27;96416;-62
2023/08/07 06:16:04;;;;;;;;;0.00;0.00;;;;;20.74;100.00;97837.78;6242391;27;98938;-61
2023/08/07 06:19:08;;;;;;;;;2.00;2.00;;;;;20.74;100.00;97846.81;6276805;27;96440;-62
2023/08/07 06:22:33;;;;;;;;;1.00;1.00;;;;;20.76;100.00;97843.78;6284115;27;96433;-62
2023/08/07 06:25:38;;;;;;;;;3.00;2.50;;;;;20.75;100.00;97842.16;6270106;27;97731;-62
2023/08/07 06:28:42;;;;;;;;;1.00;1.00;;;;;20.89;100.00;97848.38;6269412;27;99519;-62
2023/08/07 06:31:47;;;;;;;;;0.00;0.00;;;;;20.65;100.00;97831.47;6268246;27;96816;-62
2023/08/07 06:34:53;;;;;;;;;1.00;1.00;;;;;20.79;100.00;97840.41;6264235;27;96889;-62
2023/08/07 06:37:56;;;;;;;;;1.00;1.00;;;;;21.05;100.00;97844.09;6270571;27;96423;-62
2023/08/07 06:41:00;;;;;;;;;1.00;1.00;;;;;21.11;100.00;97837.34;6288267;27;96339;-62
2023/08/07 06:44:03;;;;;;;;;1.60;1.60;;;;;21.34;100.00;97837.31;6268740;27;96277;-63
2023/08/07 06:47:08;;;;;;;;;1.00;1.00;;;;;21.52;100.00;97839.81;6288339;27;96534;-62
2023/08/07 06:50:13;;;;;;;;;1.00;1.00;;;;;21.64;100.00;97843.88;6268717;27;97104;-62
2023/08/07 06:53:16;;;;;;;;;0.00;0.00;;;;;21.70;100.00;97842.59;6288419;27;96287;-62
2023/08/07 06:56:19;;;;;;;;;2.00;2.00;;;;;21.89;100.00;97837.63;6288017;27;96922;-62
2023/08/07 06:59:23;;;;;;;;;2.00;2.00;;;;;22.13;100.00;97839.97;6276998;27;96256;-63
2023/08/07 07:02:28;;;;;;;;;1.00;1.00;;;;;22.33;100.00;97844.81;6269685;27;96676;-62
2023/08/07 07:05:32;;;;;;;;;3.00;3.00;;;;;22.46;100.00;97830.91;6284533;27;96571;-62
2023/08/07 07:08:36;;;;;;;;;2.20;2.20;;;;;22.63;100.00;97821.81;6244259;27;98368;-63
2023/08/07 07:11:40;;;;;;;;;1.80;1.80;;;;;22.94;100.00;97832.63;6265133;27;96749;-62
2023/08/07 07:14:43;;;;;;;;;3.00;3.00;;;;;23.09;100.00;97825.78;6260202;27;96656;-63
2023/08/07 07:17:47;;;;;;;;;3.00;3.00;;;;;23.18;100.00;97813.63;6288131;27;96458;-62
2023/08/07 07:20:58;;;;;;;;;2.00;2.00;;;;;23.41;100.00;97819.66;6268629;27;96598;-62
2023/08/07 07:24:02;;;;;;;;;3.00;3.00;;;;;23.34;100.00;97819.38;6243027;27;97876;-63
2023/08/07 07:27:06;;;;;;;;;1.00;1.00;;;;;23.42;100.00;97826.78;6260450;27;96733;-62
2023/08/07 07:30:11;;;;;;;;;3.40;3.40;;;;;23.28;100.00;97826.19;6261860;27;98496;-63
2023/08/07 07:33:16;;;;;;;;;3.00;3.00;;;;;23.09;100.00;97828.53;6255492;27;96287;-63
2023/08/07 07:36:20;;;;;;;;;3.00;3.00;;;;;22.98;100.00;97838.25;6274004;27;97070;-62
2023/08/07 07:39:23;;;;;;;;;1.00;1.00;;;;;22.94;100.00;97834.56;6287022;27;96509;-63
2023/08/07 07:42:26;;;;;;;;;0.50;0.50;;;;;23.00;100.00;97839.56;6284584;27;96648;-62
2023/08/07 07:45:29;;;;;;;;;3.00;3.00;;;;;23.29;100.00;97831.38;6286578;27;96719;-63
2023/08/07 07:48:34;;;;;;;;;1.00;1.00;;;;;23.47;100.00;97836.81;6287324;27;96912;-64
2023/08/07 07:51:37;;;;;;;;;2.60;2.60;;;;;23.69;100.00;97839.31;6268263;27;96929;-63
2023/08/07 07:54:40;;;;;;;;;2.00;2.00;;;;;23.64;100.00;97834.00;6286554;27;96437;-62
2023/08/07 07:57:43;;;;;;;;;1.00;1.00;;;;;23.36;100.00;97832.81;6268490;27;96877;-62
2023/08/07 08:00:47;;;;;;;;;2.00;2.00;;;;;23.29;100.00;97836.88;6267299;27;96691;-62
2023/08/07 08:03:51;;;;;;;;;1.00;1.00;;;;;22.93;100.00;97836.50;6286938;27;96965;-63
2023/08/07 08:06:55;;;;;;;;;0.00;0.00;;;;;22.56;100.00;97843.50;6267872;27;98365;-62
2023/08/07 08:09:58;;;;;;;;;1.00;0.00;;;;;22.66;100.00;97840.41;6287445;27;97091;-62
2023/08/07 08:13:03;;;;;;;;;1.00;1.00;;;;;22.50;100.00;97844.78;6272571;27;96344;-63
2023/08/07 08:16:07;;;;;;;;;3.60;3.00;;;;;22.60;100.00;97851.88;6267942;27;97369;-63
2023/08/07 08:19:12;;;;;;;;;1.00;1.00;;;;;22.76;100.00;97864.03;6287846;27;96324;-62
2023/08/07 08:22:15;;;;;;;;;1.50;1.50;;;;;22.70;100.00;97860.63;6252899;27;96733;-63
2023/08/07 08:25:19;;;;;;;;;1.00;1.00;;;;;22.86;100.00;97850.75;6277020;27;96646;-62
2023/08/07 08:28:22;;;;;;;;;3.00;2.80;;;;;22.91;100.00;97852.53;6288628;27;96860;-62
2023/08/07 08:31:28;;;;;;;;;2.00;2.00;;;;;23.36;100.00;97861.09;6254444;27;97015;-63
2023/08/07 08:34:32;;;;;;;;;2.00;2.00;;;;;23.97;100.00;97850.63;6265447;27;98425;-62
2023/08/07 08:37:36;;;;;;;;;2.20;2.20;;;;;24.33;100.00;97852.84;6285065;27;96378;-63
2023/08/07 08:40:41;;;;;;;;;6.00;6.00;;;;;24.54;100.00;97854.41;6277458;27;97195;-63
2023/08/07 08:43:46;;;;;;;;;2.00;2.00;;;;;24.31;100.00;97844.09;6245865;27;98692;-63
2023/08/07 08:46:53;;;;;;;;;4.00;4.00;;;;;24.44;100.00;97838.28;6266772;27;96622;-63
2023/08/07 08:50:03;;;;;;;;;4.00;3.00;;;;;24.54;100.00;97837.06;6277549;27;96878;-62
2023/08/07 08:53:07;;;;;;;;;2.00;2.00;;;;;24.67;100.00;97840.69;6246117;27;98537;-63
2023/08/07 08:56:11;;;;;;;;;0.00;0.00;;;;;24.55;100.00;97828.47;6248711;27;96490;-63
2023/08/07 08:59:18;;;;;;;;;4.00;4.00;;;;;24.42;100.00;97826.81;6264338;27;96910;-63
2023/08/07 09:02:21;;;;;;;;;1.80;1.80;;;;;24.19;100.00;97820.03;6265526;27;96400;-62
2023/08/07 09:05:26;;;;;;;;;3.00;3.00;;;;;24.21;100.00;97823.25;6265026;27;96405;-63
2023/08/07 09:08:32;;;;;;;;;1.25;1.25;;;;;24.72;100.00;97832.22;6265266;27;96448;-62
2023/08/07 09:11:37;;;;;;;;;2.25;2.25;;;;;24.71;100.00;97823.16;6290175;27;96430;-63
2023/08/07 09:14:42;;;;;;;;;1.00;1.00;;;;;24.66;100.00;97820.59;6267053;27;97160;-63
2023/08/07 09:17:46;;;;;;;;;2.20;2.20;;;;;24.73;100.00;97823.59;6280654;27;96725;-63
2023/08/07 09:20:52;;;;;;;;;1.00;1.00;;;;;24.68;100.00;97812.78;6266165;27;96290;-63
2023/08/07 09:23:55;;;;;;;;;1.20;1.20;;;;;24.50;100.00;97801.13;6271040;27;96897;-63
2023/08/07 09:26:59;;;;;;;;;3.00;3.00;;;;;24.51;100.00;97777.94;6277094;27;96931;-64
2023/08/07 09:30:03;;;;;;;;;4.00;4.00;;;;;24.25;100.00;97765.56;6289966;27;96869;-64
2023/08/07 09:33:07;;;;;;;;;2.80;2.80;;;;;24.32;100.00;97763.88;6288986;27;96764;-63
2023/08/07 09:36:12;;;;;;;;;3.00;3.00;;;;;24.40;100.00;97760.22;6285893;27;96485;-63
2023/08/07 09:39:16;;;;;;;;;0.60;0.00;;;;;24.68;100.00;97759.63;6265316;27;96830;-63
2023/08/07 09:42:19;;;;;;;;;1.40;1.40;;;;;24.83;100.00;97754.25;6288180;27;96383;-63
2023/08/07 09:45:24;;;;;;;;;2.00;2.00;;;;;25.11;100.00;97739.84;6254455;27;96724;-63
2023/08/07 09:48:27;;;;;;;;;1.00;1.00;;;;;25.41;100.00;97749.50;6279917;27;96461;-63
2023/08/07 09:51:42;;;;;;;;;1.20;1.20;;;;;25.39;100.00;97736.06;6273492;27;96471;-63
2023/08/07 09:54:46;;;;;;;;;2.00;1.80;;;;;25.65;100.00;97734.91;6273111;27;97237;-63
2023/08/07 09:57:49;;;;;;;;;2.20;2.20;;;;;25.84;100.00;97740.59;6241967;27;97109;-63
2023/08/07 10:00:55;;;;;;;;;3.00;3.00;;;;;25.98;100.00;97729.19;6248273;27;96793;-63
2023/08/07 10:03:58;;;;;;;;;1.50;1.50;;;;;26.09;100.00;97724.78;6272737;27;96249;-63
2023/08/07 10:07:04;;;;;;;;;2.00;2.00;;;;;26.33;100.00;97724.69;6252459;27;96678;-63
2023/08/07 10:10:08;;;;;;;;;3.00;3.00;;;;;26.24;100.00;97729.59;6248395;27;97042;-63
2023/08/07 10:13:14;;;;;;;;;2.40;2.00;;;;;26.22;100.00;97723.59;6269055;27;96336;-63
2023/08/07 10:16:20;;;;;;;;;2.40;2.40;;;;;26.18;100.00;97723.47;6271001;27;97671;-63
2023/08/07 10:19:23;;;;;;;;;3.20;3.20;;;;;26.53;100.00;97720.09;6258222;27;96656;-63
2023/08/07 10:22:31;;;;;;;;;1.80;1.00;;;;;26.93;100.00;97719.97;6280506;27;96417;-64
2023/08/07 10:25:36;;;;;;;;;1.00;1.00;;;;;26.68;100.00;97725.63;6292737;27;96373;-63
2023/08/07 10:28:42;;;;;;;;;5.00;4.00;;;;;26.75;100.00;97725.03;6250411;27;98545;-64
2023/08/07 10:31:46;;;;;;;;;3.00;3.00;;;;;26.56;100.00;97711.91;6249196;27;96858;-63
2023/08/07 10:34:51;;;;;;;;;4.00;4.00;;;;;26.59;100.00;97711.19;6292298;27;96537;-64
2023/08/07 10:37:55;;;;;;;;;1.50;1.50;;;;;26.18;100.00;97715.19;6266521;27;96388;-64
2023/08/07 10:41:03;;;;;;;;;1.00;0.75;;;;;25.59;100.00;97712.25;6288860;27;96582;-64
2023/08/07 10:44:06;;;;;;;;;3.00;3.00;;;;;25.52;100.00;97714.75;6291204;27;96315;-63
2023/08/07 10:47:09;;;;;;;;;4.00;4.00;;;;;25.26;100.00;97720.66;6273635;27;97152;-64
2023/08/07 10:50:12;;;;;;;;;3.00;3.00;;;;;25.27;100.00;97724.19;6291767;27;96375;-64
2023/08/07 10:53:22;;;;;;;;;3.00;3.00;;;;;25.67;100.00;97711.31;6254776;27;97386;-64
2023/08/07 10:56:31;;;;;;;;;6.00;6.00;;;;;25.89;100.00;97712.75;6290171;27;96410;-63
2023/08/07 10:59:38;;;;;;;;;4.20;4.20;;;;;25.97;100.00;97716.50;6270240;27;96513;-64
2023/08/07 11:02:43;;;;;;;;;2.60;2.60;;;;;26.39;100.00;97697.63;6261396;27;97465;-63
2023/08/07 11:05:47;;;;;;;;;3.00;3.00;;;;;26.55;100.00;97687.38;6277519;27;96389;-63
2023/08/07 11:08:52;;;;;;;;;2.00;2.00;;;;;26.35;100.00;97697.50;6262284;27;96517;-63
2023/08/07 11:11:55;;;;;;;;;1.40;1.40;;;;;26.20;100.00;97718.38;6285520;27;96916;-63
2023/08/07 11:14:58;;;;;;;;;0.20;0.20;;;;;25.77;100.00;97713.59;6287084;27;96680;-63
2023/08/07 11:18:02;;;;;;;;;1.00;1.00;;;;;25.25;100.00;97712.72;6257479;27;96418;-64
2023/08/07 11:21:05;;;;;;;;;3.00;3.00;;;;;25.15;100.00;97716.75;6275169;27;96349;-65
2023/08/07 11:24:15;;;;;;;;;3.40;3.40;;;;;25.00;100.00;97723.75;6278869;27;96439;-65
2023/08/07 11:27:18;;;;;;;;;3.00;3.00;;;;;24.81;100.00;97711.66;6263635;27;97728;-65
2023/08/07 11:30:21;;;;;;;;;4.00;4.00;;;;;24.90;100.00;97720.66;6277529;27;96399;-64
2023/08/07 11:33:26;;;;;;;;;3.00;3.00;;;;;24.89;100.00;97739.13;6282908;27;97144;-65
2023/08/07 11:36:31;;;;;;;;;4.00;4.00;;;;;25.04;100.00;97734.91;6287534;27;97071;-65
2023/08/07 11:39:42;;;;;;;;;5.00;5.00;;;;;25.47;100.00;97734.31;6274150;27;96850;-66
2023/08/07 11:42:46;;;;;;;;;4.00;4.00;;;;;25.56;100.00;97731.47;6278296;27;96421;-65
2023/08/07 11:45:49;;;;;;;;;4.00;4.00;;;;;25.37;100.00;97729.25;6268103;27;97139;-65
2023/08/07 11:48:54;;;;;;;;;4.00;4.00;;;;;25.13;100.00;97748.56;6281369;27;96469;-66
2023/08/07 11:51:58;;;;;;;;;5.00;5.00;;;;;24.65;100.00;97752.03;6280731;27;96472;-64
2023/08/07 11:55:06;;;;;;;;;4.00;4.00;;;;;24.57;100.00;97751.00;6280592;27;96487;-64
2023/08/07 11:58:09;;;;;;;;;1.60;1.60;;;;;24.40;100.00;97765.72;6252189;27;97768;-65
2023/08/07 12:01:14;;;;;;;;;4.00;3.50;;;;;24.19;100.00;97767.69;6285819;27;96332;-65
2023/08/07 12:04:19;;;;;;;;;2.60;2.60;;;;;24.18;100.00;97768.88;6270048;27;96231;-64
2023/08/07 12:07:26;;;;;;;;;3.00;3.00;;;;;24.26;100.00;97765.22;6287923;27;96534;-66
2023/08/07 12:10:33;;;;;;;;;3.00;3.00;;;;;24.15;100.00;97777.75;6245014;27;99399;-64
2023/08/07 12:13:38;;;;;;;;;2.00;2.00;;;;;24.09;100.00;97765.34;6264167;27;96508;-66
2023/08/07 12:16:45;;;;;;;;;0.80;0.80;;;;;23.88;100.00;97784.63;6265769;27;96582;-65
2023/08/07 12:19:51;;;;;;;;;1.40;1.40;;;;;23.81;100.00;97776.09;6270378;27;96549;-65
2023/08/07 12:22:54;;;;;;;;;1.00;1.00;;;;;23.56;100.00;97797.13;6291172;27;96348;-65
2023/08/07 12:25:58;;;;;;;;;2.00;2.00;;;;;23.33;100.00;97793.81;6272640;27;97279;-64
2023/08/07 12:29:02;;;;;;;;;3.00;2.00;;;;;23.29;100.00;97816.81;6288167;27;96776;-65
2023/08/07 12:32:06;;;;;;;;;2.50;2.50;;;;;23.10;100.00;97838.41;6270844;27;96932;-65
2023/08/07 12:35:09;;;;;;;;;1.00;1.00;;;;;22.98;100.00;97849.25;6290017;27;96739;-64
2023/08/07 12:38:17;;;;;;;;;2.00;2.00;;;;;22.86;100.00;97869.19;6271440;27;96963;-65
2023/08/07 12:41:21;;;;;;;;;5.40;5.40;;;;;22.73;100.00;97878.41;6290709;27;96552;-64
2023/08/07 12:44:27;;;;;;;;;3.00;3.00;;;;;22.52;100.00;97882.94;6291125;27;96307;-65
2023/08/07 12:47:31;;;;;;;;;3.00;3.00;;;;;22.34;100.00;97893.91;6272513;27;99385;-65
2023/08/07 12:50:34;;;;;;;;;3.00;3.00;;;;;22.11;100.00;97892.41;6271884;27;96727;-64
2023/08/07 12:53:37;;;;;;;;;3.00;2.00;;;;;21.98;100.00;97904.34;6290248;27;96353;-64
2023/08/07 12:56:42;;;;;;;;;1.40;1.40;;;;;21.77;100.00;97917.00;6255574;27;97867;-63
2023/08/07 12:59:45;;;;;;;;;4.00;3.60;;;;;21.59;100.00;97916.16;6289430;27;96914;-64
2023/08/07 13:02:49;;;;;;;;;3.00;3.00;;;;;21.50;100.00;97918.81;6271571;27;98599;-64
2023/08/07 13:05:53;;;;;;;;;5.00;5.00;;;;;21.47;100.00;97919.47;6288720;27;96401;-63
2023/08/07 13:08:56;;;;;;;;;6.00;6.00;;;;;21.39;100.00;97911.22;6289841;27;96830;-64
2023/08/07 13:12:00;;;;;;;;;6.00;6.00;;;;;21.47;100.00;97938.66;6271894;27;98579;-63
2023/08/07 13:15:05;;;;;;;;;5.00;5.00;;;;;21.59;100.00;97949.06;6290471;27;96313;-64
2023/08/07 13:18:08;;;;;;;;;7.00;7.00;;;;;21.67;100.00;97955.69;6271239;27;99022;-63
2023/08/07 13:21:11;;;;;;;;;10.00;9.00;;;;;21.75;100.00;97955.72;6270965;27;98647;-63
2023/08/07 13:24:14;;;;;;;;;9.00;8.00;;;;;21.77;100.00;97964.44;6271537;27;98107;-63
2023/08/07 13:27:22;;;;;;;;;10.00;9.00;;;;;21.89;100.00;97972.09;6289920;27;96414;-64
2023/08/07 13:30:25;;;;;;;;;7.75;6.75;;;;;22.07;100.00;97975.72;6271146;27;96868;-64
2023/08/07 13:33:30;;;;;;;;;8.00;6.00;;;;;22.21;100.00;97973.66;6289886;27;96601;-64
2023/08/07 13:36:33;;;;;;;;;5.00;5.00;;;;;22.63;100.00;97981.16;6289881;27;96373;-64
2023/08/07 13:39:37;;;;;;;;;4.75;4.75;;;;;22.75;100.00;97984.13;6270557;27;96993;-64
2023/08/07 13:42:41;;;;;;;;;4.00;4.00;;;;;22.89;100.00;97995.75;6289928;27;96479;-64
2023/08/07 13:45:45;;;;;;;;;5.00;5.00;;;;;22.80;100.00;97988.66;6269949;27;98591;-64
2023/08/07 13:48:48;;;;;;;;;5.00;4.50;;;;;22.82;100.00;97989.16;6269701;27;96932;-65
2023/08/07 13:51:51;;;;;;;;;3.75;3.75;;;;;22.66;100.00;97987.97;6288459;27;96477;-64
2023/08/07 13:54:54;;;;;;;;;3.75;3.75;;;;;22.75;100.00;97991.56;6286639;27;98620;-64
2023/08/07 13:58:00;;;;;;;;;4.00;4.00;;;;;22.98;100.00;97998.50;6288752;27;96326;-64
2023/08/07 14:01:04;;;;;;;;;4.00;4.00;;;;;23.16;100.00;97997.38;6286284;27;96559;-64
2023/08/07 14:04:07;;;;;;;;;6.00;6.00;;;;;23.21;100.00;97997.19;6263479;27;96333;-64
2023/08/07 14:07:10;;;;;;;;;6.00;6.00;;;;;23.24;100.00;97998.50;6269618;27;98652;-64
2023/08/07 14:10:14;;;;;;;;;5.80;5.80;;;;;23.05;100.00;98009.84;6271638;27;96351;-65
2023/08/07 14:13:18;;;;;;;;;6.00;6.00;;;;;23.07;100.00;98002.03;6275337;27;97533;-65
2023/08/07 14:16:23;;;;;;;;;7.00;7.00;;;;;22.93;100.00;97993.16;6252712;27;96903;-65